createdAt,value
2022-12-13T00:02:01.196Z,7.80
2022-12-13T00:04:30.016Z,7.40
2022-12-13T00:06:58.568Z,7.20
2022-12-13T00:09:27.223Z,7.10
2022-12-13T00:11:55.830Z,7.00
2022-12-13T00:14:24.348Z,7.40
2022-12-13T00:16:52.954Z,6.50
2022-12-13T00:19:21.502Z,7.30
2022-12-13T00:21:50.094Z,7.00
2022-12-13T00:24:18.699Z,7.20
2022-12-13T00:26:47.254Z,7.90
2022-12-13T00:29:15.846Z,7.40
2022-12-13T00:31:59.303Z,7.40
2022-12-13T00:34:30.249Z,7.60
2022-12-13T00:36:59.382Z,7.60
2022-12-13T00:39:28.749Z,7.40
2022-12-13T00:41:58.049Z,7.40
2022-12-13T00:44:26.957Z,8.70
2022-12-13T00:46:56.616Z,7.50
2022-12-13T00:49:25.269Z,7.50
2022-12-13T00:51:53.906Z,7.40
2022-12-13T00:54:22.549Z,7.30
2022-12-13T00:56:51.656Z,6.80
2022-12-13T00:59:20.381Z,7.30
2022-12-13T01:01:49.081Z,6.50
2022-12-13T01:04:17.722Z,7.60
2022-12-13T01:06:50.064Z,7.20
2022-12-13T01:09:31.060Z,7.50
2022-12-13T01:12:02.626Z,7.10
2022-12-13T01:14:32.213Z,7.10
2022-12-13T01:17:00.904Z,7.30
2022-12-13T01:19:29.626Z,8.50
2022-12-13T01:22:01.260Z,6.70
2022-12-13T01:24:31.592Z,7.10
2022-12-13T01:27:00.573Z,7.00
2022-12-13T01:29:29.345Z,7.80
2022-12-13T01:31:57.872Z,6.80
2022-12-13T01:34:27.733Z,7.20
2022-12-13T01:36:58.199Z,6.30
2022-12-13T01:39:28.087Z,7.40
2022-12-13T01:42:00.241Z,7.10
2022-12-13T01:44:57.249Z,6.60
2022-12-13T01:47:43.861Z,6.50
2022-12-13T01:50:21.194Z,6.90
2022-12-13T01:52:50.496Z,6.10
2022-12-13T01:55:22.594Z,7.40
2022-12-13T01:57:53.759Z,6.70
2022-12-13T02:00:22.465Z,6.80
2022-12-13T02:02:51.530Z,6.60
2022-12-13T02:05:24.625Z,7.30
2022-12-13T02:07:53.723Z,6.90
2022-12-13T02:10:22.389Z,7.90
2022-12-13T02:12:51.219Z,6.20
2022-12-13T02:15:20.969Z,5.80
2022-12-13T02:18:27.366Z,6.80
2022-12-13T02:21:28.866Z,6.80
2022-12-13T02:24:12.405Z,6.70
2022-12-13T02:27:17.002Z,6.00
2022-12-13T02:30:01.993Z,6.50
2022-12-13T02:33:09.045Z,5.80
2022-12-13T02:36:07.486Z,6.50
2022-12-13T02:38:49.225Z,7.40
2022-12-13T02:41:29.846Z,4.90
2022-12-13T02:44:22.731Z,6.40
2022-12-13T02:47:05.854Z,6.70
2022-12-13T02:49:48.361Z,5.80
2022-12-13T02:52:22.662Z,6.90
2022-12-13T02:54:53.760Z,6.50
2022-12-13T02:57:38.834Z,6.20
2022-12-13T03:00:12.515Z,6.00
2022-12-13T03:02:56.947Z,7.70
2022-12-13T03:06:04.296Z,6.20
2022-12-13T03:09:10.602Z,6.50
2022-12-13T03:12:32.467Z,6.70
2022-12-13T03:15:18.058Z,7.10
2022-12-13T03:18:17.839Z,6.80
2022-12-13T03:20:57.090Z,6.80
2022-12-13T03:23:27.327Z,7.10
2022-12-13T03:26:01.677Z,5.60
2022-12-13T03:28:30.233Z,5.90
2022-12-13T03:30:58.894Z,6.60
2022-12-13T03:33:27.631Z,6.90
2022-12-13T03:35:56.674Z,6.70
2022-12-13T03:38:25.932Z,5.80
2022-12-13T03:41:01.100Z,6.70
2022-12-13T03:43:30.041Z,5.30
2022-12-13T03:45:58.649Z,5.20
2022-12-13T03:48:27.639Z,5.30
2022-12-13T03:50:56.963Z,5.50
2022-12-13T03:53:33.374Z,5.70
2022-12-13T03:56:06.417Z,6.60
2022-12-13T03:58:38.117Z,6.10
2022-12-13T04:01:17.052Z,5.40
2022-12-13T04:03:47.450Z,6.10
2022-12-13T04:06:21.733Z,5.00
2022-12-13T04:08:53.045Z,5.00
2022-12-13T04:11:43.106Z,5.00
2022-12-13T04:14:12.372Z,5.10
2022-12-13T04:16:52.492Z,6.40
2022-12-13T04:19:23.126Z,8.50
2022-12-13T04:21:54.427Z,11.80
2022-12-13T04:24:31.630Z,6.60
2022-12-13T04:27:02.019Z,8.00
2022-12-13T04:29:33.895Z,10.00
2022-12-13T04:32:26.101Z,17.20
2022-12-13T04:35:01.338Z,14.60
2022-12-13T04:37:43.448Z,15.00
2022-12-13T04:40:12.584Z,11.20
2022-12-13T04:42:41.137Z,8.30
2022-12-13T04:45:15.965Z,5.90
2022-12-13T04:47:44.965Z,8.40
2022-12-13T04:50:13.499Z,7.30
2022-12-13T04:52:42.141Z,8.10
2022-12-13T04:55:10.985Z,8.00
2022-12-13T04:57:40.341Z,7.40
2022-12-13T05:00:13.381Z,8.10
2022-12-13T05:02:42.461Z,8.90
2022-12-13T05:05:11.984Z,8.50
2022-12-13T05:07:42.094Z,6.90
2022-12-13T05:10:12.056Z,7.90
2022-12-13T05:12:40.582Z,9.70
2022-12-13T05:15:09.484Z,6.90
2022-12-13T05:17:38.025Z,9.00
2022-12-13T05:20:07.048Z,6.70
2022-12-13T05:22:35.777Z,8.30
2022-12-13T05:25:06.957Z,8.90
2022-12-13T05:27:35.498Z,8.30
2022-12-13T05:30:05.417Z,9.10
2022-12-13T05:32:44.120Z,9.10
2022-12-13T05:35:21.774Z,10.50
2022-12-13T05:37:53.548Z,9.20
2022-12-13T05:40:29.119Z,10.80
2022-12-13T05:43:01.169Z,8.60
2022-12-13T05:45:32.592Z,8.70
2022-12-13T05:48:01.954Z,9.50
2022-12-13T05:50:30.777Z,8.00
2022-12-13T05:52:59.285Z,9.40
2022-12-13T05:55:27.822Z,9.60
2022-12-13T05:58:02.513Z,8.90
2022-12-13T06:00:31.498Z,9.60
2022-12-13T06:03:01.890Z,9.60
2022-12-13T06:05:31.513Z,10.70
2022-12-13T06:08:00.708Z,9.40
2022-12-13T06:10:34.940Z,9.20
2022-12-13T06:13:21.776Z,8.80
2022-12-13T06:16:01.304Z,8.20
2022-12-13T06:18:33.216Z,10.00
2022-12-13T06:21:07.244Z,9.50
2022-12-13T06:23:36.449Z,9.90
2022-12-13T06:26:07.329Z,11.40
2022-12-13T06:28:36.138Z,10.80
2022-12-13T06:31:05.446Z,10.70
2022-12-13T06:33:38.446Z,9.30
2022-12-13T06:36:07.836Z,10.70
2022-12-13T06:38:43.373Z,8.40
2022-12-13T06:41:16.756Z,8.50
2022-12-13T06:43:46.874Z,8.40
2022-12-13T06:46:16.100Z,7.30
2022-12-13T06:48:45.126Z,9.30
2022-12-13T06:51:22.959Z,9.60
2022-12-13T06:53:51.806Z,8.00
2022-12-13T06:57:40.753Z,9.00
2022-12-13T07:00:12.515Z,9.20
2022-12-13T07:02:41.122Z,9.50
2022-12-13T07:05:10.930Z,8.70
2022-12-13T07:07:39.564Z,10.40
2022-12-13T07:10:12.646Z,9.90
2022-12-13T07:12:50.836Z,8.80
2022-12-13T07:15:19.376Z,9.80
2022-12-13T07:17:52.377Z,8.30
2022-12-13T07:20:22.773Z,10.60
2022-12-13T07:22:58.843Z,10.20
2022-12-13T07:25:29.720Z,11.70
2022-12-13T07:28:02.947Z,11.60
2022-12-13T07:30:41.148Z,13.00
2022-12-13T07:33:11.542Z,13.20
2022-12-13T07:35:41.348Z,12.20
2022-12-13T07:38:11.829Z,12.80
2022-12-13T07:40:41.555Z,13.50
2022-12-13T07:43:10.249Z,13.00
2022-12-13T07:45:38.817Z,14.40
2022-12-13T07:48:08.878Z,14.30
2022-12-13T07:50:38.085Z,14.90
2022-12-13T07:53:08.557Z,12.60
2022-12-13T07:55:38.326Z,12.00
2022-12-13T07:58:15.724Z,13.10
2022-12-13T08:00:46.925Z,13.40
2022-12-13T08:03:25.571Z,13.50
2022-12-13T08:06:08.780Z,11.80
2022-12-13T08:08:38.466Z,12.60
2022-12-13T08:11:11.247Z,12.60
2022-12-13T08:13:41.124Z,12.40
2022-12-13T08:16:27.506Z,13.60
2022-12-13T08:19:02.658Z,13.50
2022-12-13T08:21:58.325Z,13.10
2022-12-13T08:24:31.057Z,12.80
2022-12-13T08:27:03.081Z,11.80
2022-12-13T08:29:36.773Z,13.30
2022-12-13T08:32:10.588Z,12.80
2022-12-13T08:34:41.608Z,10.40
2022-12-13T08:37:10.207Z,13.00
2022-12-13T08:39:39.975Z,11.20
2022-12-13T08:42:15.885Z,13.80
2022-12-13T08:44:50.890Z,13.40
2022-12-13T08:47:25.231Z,14.90
2022-12-13T08:50:01.360Z,12.80
2022-12-13T08:52:40.705Z,11.40
2022-12-13T08:55:15.513Z,10.70
2022-12-13T08:57:45.373Z,9.10
2022-12-13T09:00:18.339Z,8.70
2022-12-13T09:02:47.188Z,9.40
2022-12-13T09:05:33.517Z,9.70
2022-12-13T09:08:23.018Z,8.70
2022-12-13T09:11:01.311Z,7.90
2022-12-13T09:13:43.400Z,9.50
2022-12-13T09:16:25.845Z,7.60
2022-12-13T09:18:55.223Z,8.80
2022-12-13T09:21:30.975Z,7.40
2022-12-13T09:24:02.176Z,8.40
2022-12-13T09:26:38.470Z,9.70
2022-12-13T09:29:10.331Z,7.70
2022-12-13T09:31:40.991Z,7.70
2022-12-13T09:34:11.573Z,8.40
2022-12-13T09:36:40.301Z,9.20
2022-12-13T09:39:11.952Z,9.50
2022-12-13T09:41:53.134Z,8.70
2022-12-13T09:45:02.236Z,9.30
2022-12-13T09:47:39.317Z,8.60
2022-12-13T09:50:37.658Z,6.80
2022-12-13T09:53:12.067Z,7.90
2022-12-13T09:55:52.516Z,8.40
2022-12-13T09:58:28.051Z,7.80
2022-12-13T10:03:27.468Z,8.50
2022-12-13T10:06:02.307Z,8.10
2022-12-13T10:08:37.424Z,8.10
2022-12-13T10:11:06.446Z,8.40
2022-12-13T10:14:01.424Z,6.50
2022-12-13T10:16:37.238Z,11.40
2022-12-13T10:19:35.375Z,9.60
2022-12-13T10:22:09.541Z,12.00
2022-12-13T10:24:48.902Z,13.80
2022-12-13T10:27:33.608Z,20.50
2022-12-13T10:30:28.561Z,12.10
2022-12-13T10:33:04.876Z,12.00
2022-12-13T10:35:41.717Z,10.60
2022-12-13T10:38:16.769Z,9.30
2022-12-13T10:40:46.770Z,7.30
2022-12-13T10:43:15.384Z,8.10
2022-12-13T10:45:59.573Z,16.30
2022-12-13T10:48:50.737Z,12.10
2022-12-13T10:51:23.024Z,7.60
2022-12-13T10:54:00.773Z,8.50
2022-12-13T10:56:51.501Z,10.10
2022-12-13T10:59:31.202Z,9.70
2022-12-13T11:02:01.876Z,9.00
2022-12-13T11:04:35.294Z,7.80
2022-12-13T11:07:32.431Z,8.20
2022-12-13T11:10:27.593Z,7.70
2022-12-13T11:13:06.459Z,7.10
2022-12-13T11:15:38.725Z,6.30
2022-12-13T11:18:23.609Z,10.90
2022-12-13T11:21:02.865Z,10.10
2022-12-13T11:23:45.927Z,7.10
2022-12-13T11:26:24.743Z,9.50
2022-12-13T11:29:15.955Z,8.10
2022-12-13T11:32:05.912Z,8.40
2022-12-13T11:35:09.396Z,7.30
2022-12-13T11:38:02.537Z,7.10
2022-12-13T11:40:40.140Z,6.50
2022-12-13T11:43:36.430Z,6.30
2022-12-13T11:46:22.431Z,7.10
2022-12-13T11:49:01.499Z,7.30
2022-12-13T11:52:06.012Z,8.40
2022-12-13T11:54:46.493Z,7.40
2022-12-13T11:57:45.261Z,10.70
2022-12-13T12:00:59.674Z,7.40
2022-12-13T12:03:45.733Z,8.90
2022-12-13T12:06:29.751Z,5.90
2022-12-13T12:09:09.896Z,13.40
2022-12-13T12:12:00.243Z,11.10
2022-12-13T12:14:50.023Z,10.40
2022-12-13T12:17:25.668Z,9.90
2022-12-13T12:19:57.654Z,9.00
2022-12-13T12:22:44.684Z,10.90
2022-12-13T12:25:36.383Z,9.90
2022-12-13T12:28:31.782Z,8.40
2022-12-13T12:31:17.143Z,8.00
2022-12-13T12:34:43.302Z,8.70
2022-12-13T12:38:04.813Z,10.80
2022-12-13T12:41:24.849Z,10.00
2022-12-13T12:44:17.324Z,15.00
2022-12-13T12:50:27.366Z,8.00
2022-12-13T12:53:34.246Z,7.00
2022-12-13T12:56:34.406Z,8.20
2022-12-13T12:59:42.856Z,8.80
2022-12-13T13:02:25.955Z,10.10
2022-12-13T13:05:09.679Z,11.20
2022-12-13T13:07:51.373Z,9.80
2022-12-13T13:10:26.341Z,10.30
2022-12-13T13:13:12.445Z,11.50
2022-12-13T13:18:49.484Z,9.70
2022-12-13T13:21:23.817Z,8.40
2022-12-13T13:24:01.473Z,8.60
2022-12-13T13:26:45.311Z,9.80
2022-12-13T13:29:33.358Z,8.70
2022-12-13T13:32:11.403Z,14.50
2022-12-13T13:34:48.475Z,18.90
2022-12-13T13:37:26.123Z,15.00
2022-12-13T13:39:59.324Z,12.40
2022-12-13T13:42:32.940Z,9.90
2022-12-13T13:45:22.768Z,8.10
2022-12-13T13:48:49.467Z,10.40
2022-12-13T13:56:00.121Z,6.50
2022-12-13T13:58:51.418Z,7.00
2022-12-13T14:02:01.027Z,7.60
2022-12-13T14:05:26.851Z,7.80
2022-12-13T14:08:20.303Z,8.60
2022-12-13T14:11:07.892Z,8.20
2022-12-13T14:14:00.846Z,7.90
2022-12-13T14:17:00.413Z,7.80
2022-12-13T14:20:24.658Z,9.80
2022-12-13T14:23:27.045Z,11.30
2022-12-13T14:26:32.510Z,11.60
2022-12-13T14:29:10.601Z,12.30
2022-12-13T14:31:49.813Z,10.90
2022-12-13T14:34:33.120Z,10.30
2022-12-13T14:37:20.530Z,10.30
2022-12-13T14:39:49.349Z,11.80
2022-12-13T14:42:33.903Z,10.60
2022-12-13T14:45:37.026Z,11.10
2022-12-13T14:48:16.229Z,10.40
2022-12-13T14:50:58.073Z,11.20
2022-12-13T14:53:39.400Z,12.60
2022-12-13T14:56:28.863Z,11.20
2022-12-13T14:59:12.424Z,11.30
2022-12-13T15:01:41.497Z,11.80
2022-12-13T15:04:26.945Z,10.40
2022-12-13T15:07:09.486Z,11.80
2022-12-13T15:09:43.107Z,11.40
2022-12-13T15:12:23.872Z,11.60
2022-12-13T15:15:02.767Z,11.40
2022-12-13T15:17:38.958Z,9.00
2022-12-13T15:20:31.953Z,8.30
2022-12-13T15:23:15.057Z,8.80
2022-12-13T15:25:44.558Z,8.40
2022-12-13T15:28:18.130Z,10.50
2022-12-13T15:30:51.019Z,11.90
2022-12-13T15:33:30.490Z,11.90
2022-12-13T15:36:16.993Z,21.80
2022-12-13T15:38:57.509Z,10.70
2022-12-13T15:41:31.073Z,26.80
2022-12-13T15:44:17.257Z,38.10
2022-12-13T15:46:50.292Z,45.70
2022-12-13T15:49:38.453Z,27.20
2022-12-13T15:52:19.927Z,18.40
2022-12-13T15:55:12.839Z,15.60
2022-12-13T15:57:57.520Z,16.70
2022-12-13T16:00:34.761Z,17.70
2022-12-13T16:03:16.288Z,12.60
2022-12-13T16:20:07.640Z,21.50
2022-12-13T16:22:37.862Z,20.60
2022-12-13T16:25:06.826Z,16.50
2022-12-13T16:27:37.624Z,21.00
2022-12-13T16:30:22.680Z,18.30
2022-12-13T16:35:40.483Z,62.30
2022-12-13T16:38:12.128Z,42.40
2022-12-13T16:41:08.230Z,21.00
2022-12-13T16:43:58.612Z,19.00
2022-12-13T16:47:14.235Z,54.70
2022-12-13T16:49:28.772Z,36.20
2022-12-13T16:51:57.617Z,19.90
2022-12-13T16:54:26.519Z,18.60
2022-12-13T16:56:55.200Z,22.50
2022-12-13T16:59:26.272Z,17.20
2022-12-13T17:01:55.288Z,16.70
2022-12-13T17:04:24.909Z,18.60
2022-12-13T17:06:54.745Z,18.80
2022-12-13T17:09:25.293Z,18.10
2022-12-13T17:11:54.006Z,18.30
2022-12-13T17:14:22.719Z,20.00
2022-12-13T17:16:51.354Z,17.10
2022-12-13T17:19:20.108Z,15.70
2022-12-13T17:21:48.697Z,18.50
2022-12-13T17:35:47.368Z,18.70
2022-12-13T17:38:16.185Z,20.40
2022-12-13T17:40:47.550Z,19.10
2022-12-13T17:43:33.060Z,18.70
2022-12-13T17:46:07.447Z,19.10
2022-12-13T17:48:40.673Z,18.20
2022-12-13T17:51:11.831Z,20.00
2022-12-13T17:53:43.068Z,20.50
2022-12-13T17:56:16.026Z,20.20
2022-12-13T17:58:45.229Z,19.90
2022-12-13T18:01:17.437Z,18.80
2022-12-13T18:03:47.975Z,22.20
2022-12-13T18:06:16.903Z,19.80
2022-12-13T18:08:46.897Z,19.40
2022-12-13T18:11:34.895Z,21.40
2022-12-13T18:14:06.559Z,21.10
2022-12-13T18:16:38.650Z,23.20
2022-12-13T18:19:12.002Z,22.30
2022-12-13T18:21:43.235Z,24.70
2022-12-13T18:24:12.507Z,20.40
2022-12-13T18:26:41.217Z,23.40
2022-12-13T18:29:09.914Z,22.60
2022-12-13T18:31:38.594Z,21.60
2022-12-13T18:34:08.500Z,21.00
2022-12-13T18:36:37.527Z,22.50
2022-12-13T18:39:07.047Z,22.30
2022-12-13T18:41:35.610Z,22.00
2022-12-13T18:44:10.386Z,23.50
2022-12-13T18:46:42.223Z,22.90
2022-12-13T18:49:13.544Z,21.10
2022-12-13T18:51:42.171Z,22.30
2022-12-13T18:54:10.831Z,21.30
2022-12-13T18:56:39.440Z,22.40
2022-12-13T18:59:08.277Z,23.30
2022-12-13T19:01:36.846Z,23.70
2022-12-13T19:04:05.632Z,22.60
2022-12-13T19:06:34.408Z,21.80
2022-12-13T19:09:03.165Z,25.20
2022-12-13T19:11:31.753Z,23.30
2022-12-13T19:14:00.353Z,25.50
2022-12-13T19:16:29.069Z,22.50
2022-12-13T19:18:58.214Z,23.50
2022-12-13T19:21:27.584Z,24.60
2022-12-13T19:23:58.331Z,23.00
2022-12-13T19:26:29.226Z,25.80
2022-12-13T19:28:59.388Z,30.80
2022-12-13T19:31:32.120Z,40.60
2022-12-13T19:34:03.742Z,33.80
2022-12-13T19:36:32.938Z,36.20
2022-12-13T19:39:01.672Z,35.20
2022-12-13T19:41:32.425Z,31.70
2022-12-13T19:44:04.809Z,30.70
2022-12-13T19:46:34.023Z,31.20
2022-12-13T19:49:02.794Z,30.80
2022-12-13T19:51:37.530Z,38.70
2022-12-13T19:54:08.061Z,38.60
2022-12-13T19:56:36.835Z,40.10
2022-12-13T19:59:05.440Z,38.40
2022-12-13T20:01:34.191Z,39.70
2022-12-13T20:04:02.797Z,38.60
2022-12-13T20:06:31.393Z,36.40
2022-12-13T20:08:59.908Z,39.80
2022-12-13T20:11:28.507Z,40.10
2022-12-13T20:13:57.444Z,36.40
2022-12-13T20:16:27.404Z,34.50
2022-12-13T20:18:58.883Z,49.60
2022-12-13T20:21:29.523Z,64.00
2022-12-13T20:23:58.419Z,48.10
2022-12-13T20:26:31.918Z,35.20
2022-12-13T20:29:00.659Z,29.60
2022-12-13T20:31:35.180Z,29.00
2022-12-13T20:34:10.071Z,26.00
2022-12-13T20:36:38.775Z,26.40
2022-12-13T20:39:08.564Z,26.10
2022-12-13T20:41:37.639Z,28.70
2022-12-13T20:44:08.950Z,28.80
2022-12-13T20:46:37.948Z,29.80
2022-12-13T20:49:09.392Z,32.20
2022-12-13T20:51:41.488Z,35.00
2022-12-13T20:54:10.632Z,42.00
2022-12-13T20:56:39.989Z,40.80
2022-12-13T20:59:12.940Z,37.30
2022-12-13T21:01:44.008Z,40.40
2022-12-13T21:04:20.043Z,38.50
2022-12-13T21:06:48.740Z,37.30
2022-12-13T21:09:18.206Z,36.00
2022-12-13T21:11:48.960Z,34.80
2022-12-13T21:14:25.316Z,35.50
2022-12-13T21:17:00.227Z,33.10
2022-12-13T21:19:39.092Z,34.00
2022-12-13T21:22:08.785Z,33.50
2022-12-13T21:24:37.290Z,33.30
2022-12-13T21:27:05.857Z,33.00
2022-12-13T21:29:34.400Z,33.30
2022-12-13T21:32:03.210Z,31.70
2022-12-13T21:34:33.087Z,33.60
2022-12-13T21:37:01.598Z,30.40
2022-12-13T21:39:31.075Z,33.90
2022-12-13T21:41:59.625Z,30.70
2022-12-13T21:44:28.560Z,33.10
2022-12-13T21:47:13.431Z,34.20
2022-12-13T21:49:48.540Z,32.20
2022-12-13T21:52:17.795Z,32.70
2022-12-13T21:54:46.461Z,33.40
2022-12-13T21:57:33.673Z,37.90
2022-12-13T22:00:02.476Z,39.50
2022-12-13T22:02:31.371Z,41.10
2022-12-13T22:05:00.049Z,36.60
2022-12-13T22:07:33.797Z,38.90
2022-12-13T22:10:02.862Z,38.60
2022-12-13T22:12:38.531Z,41.30
2022-12-13T22:15:13.741Z,40.10
2022-12-13T22:20:15.497Z,35.50
2022-12-13T22:22:45.575Z,38.10
2022-12-13T22:25:14.250Z,41.70
2022-12-13T22:27:43.231Z,39.60
2022-12-13T22:30:12.102Z,39.00
2022-12-13T22:32:40.665Z,42.70
2022-12-13T22:35:09.441Z,40.00
2022-12-13T22:37:39.668Z,39.90
2022-12-13T22:40:09.287Z,39.50
2022-12-13T22:42:37.903Z,39.60
2022-12-13T22:45:07.266Z,38.80
2022-12-13T22:47:35.779Z,43.40
2022-12-13T22:50:04.787Z,41.00
2022-12-13T22:52:34.158Z,43.00
2022-12-13T22:55:02.937Z,40.80
2022-12-13T22:57:31.458Z,41.40
2022-12-13T23:00:00.002Z,40.90
2022-12-13T23:02:28.630Z,42.50
2022-12-13T23:04:57.236Z,43.60
2022-12-13T23:07:25.710Z,42.30
2022-12-13T23:09:54.267Z,43.10
2022-12-13T23:12:41.496Z,44.10
2022-12-13T23:15:10.515Z,48.20
2022-12-13T23:17:39.069Z,47.10
2022-12-13T23:20:08.865Z,43.90
2022-12-13T23:22:37.406Z,43.80
2022-12-13T23:25:06.631Z,46.50
2022-12-13T23:27:35.223Z,43.60
2022-12-13T23:30:04.329Z,45.50
2022-12-13T23:32:32.878Z,43.00
2022-12-13T23:35:01.374Z,46.00
2022-12-13T23:37:29.975Z,44.10
2022-12-13T23:39:58.644Z,47.90
2022-12-13T23:42:30.339Z,47.30
2022-12-13T23:44:58.843Z,44.50
2022-12-13T23:47:27.366Z,43.40
2022-12-13T23:49:55.875Z,41.80
2022-12-13T23:52:24.391Z,42.60
2022-12-13T23:54:52.943Z,41.10
2022-12-13T23:57:21.455Z,40.70
2022-12-13T23:59:49.950Z,38.20
